x

La Perouse Bank (46206) Wave Buoy

2:00am - Tue 3rd Mar 2015 All times are PST. -8 hours from GMT.

  • Sig Wave height 3.9ft
  • Peak Period 9s
  • Wind
    9mph, 11mph gusts
  • Sea Temp 50°f
  • Air Temp 47°f
  • Sea Pressure 1023.2mb
  • La Perouse Bank
  • La Perouse Bank

More Historic Weather Station data

Upgrade to MSW Pro to gain access to the past 30 days of data for over 8000 Wavebouys and Weather Stations around the globe.

Join Pro

Comparision Forecast

View Surf forecast
   
Tue 03/03 2:00am 4ft 9s 9 11 mph 1023.2mb 50f 47f
1:00am 3.5ft 8s 4 7 mph 1022.8mb 50f 48f
12:00am 3.5ft 8s 4 7 mph 1022.4mb 50f 48f
Mon 03/02 11:00pm 4.5ft 8s  -  mph 1021.9mb 50f 48f
10:00pm 4.5ft 9s  -  mph 1021.5mb 50f 48f
9:00pm 4.5ft 9s  -  2 mph 1021.1mb 50f 48f
8:00pm 4.5ft 8s 4
mph
1020.7mb 50f 48f
7:00pm 5ft 8s 4 7 mph 1020.4mb 50f 48f
6:00pm 5ft 9s 4 7 mph 1020.1mb 50f 49f
5:00pm 5ft 9s 4 7 mph 1019.8mb 51f 49f
4:00pm 5ft 9s 2 4 mph 1019.8mb 51f 50f
3:00pm 5ft 10s 4 7 mph 1019.6mb 51f 49f
2:00pm 5ft 9s 2 4 mph 1019.9mb 51f 49f
1:00pm 5ft 8s 2 4 mph 1020mb 50f 48f
12:00pm 5ft 8s 2 4 mph 1020.1mb 50f 48f
11:00am 5ft 9s  -  2 mph 1019.9mb 50f 48f
10:00am 5ft 8s  -  2 mph 1020.1mb 49f 48f
9:00am 5ft 8s 2 4 mph 1019.9mb 50f 46f
8:00am 5.5ft 8s 2 4 mph 1019.5mb 50f 45f
7:00am 5ft 8s 2 4 mph 1019mb 50f 45f
6:00am 5.5ft 8s 4 7 mph 1018.7mb 50f 45f
5:00am 6ft 8s 4 7 mph 1018.5mb 50f 45f
4:00am 6ft 8s  -  2 mph 1018.3mb 50f 45f
3:00am 5.5ft 8s 7 9 mph 1017.7mb 50f 45f
2:00am 6ft 7s 4 7 mph 1017.9mb 50f 45f
1:00am 5.5ft 8s 9 11 mph 1017.1mb 50f 45f
12:00am 5.5ft 8s 7 9 mph 1017mb 50f 45f
Sun 03/01 11:00pm 5ft 8s 9 13 mph 1016.9mb 50f 45f
10:00pm 5.5ft 7s 11 13 mph 1016.7mb 50f 46f
9:00pm 5.5ft 7s 20 22 mph 1016.2mb 50f 47f
8:00pm 5.5ft 5s 20 25 mph 1016.5mb 50f 47f
7:00pm 5ft 8s 16 20 mph 1017.1mb 50f 47f
6:00pm 5ft 7s 16 20 mph 1017.6mb 50f 46f
5:00pm 5.5ft 7s 13 16 mph 1018mb 50f 45f
4:00pm 5ft 7s 11 13 mph 1018.9mb 50f 45f
3:00pm 4.5ft 8s 16 18 mph 1019.7mb 51f 45f
2:00pm 4ft 7s 9 13 mph 1020.5mb 51f 48f
1:00pm 4.5ft 7s 4
mph
1021.4mb 51f 47f
12:00pm 4ft 8s  -  4 mph 1022.5mb 50f 47f
11:00am 4.5ft 8s 2
mph
1022.9mb 51f 47f
10:00am 4ft 7s 4 7 mph 1023.1mb 50f 47f
9:00am 3.5ft 7s 4
mph
1023.4mb 50f 47f
8:00am 4ft 8s 4 7 mph 1023.6mb 50f 47f
7:00am 4.5ft 8s 7 9 mph 1023.3mb 50f 46f
6:00am 4.5ft 8s 4 7 mph 1023.5mb 50f 47f
5:00am 4ft 8s 4 7 mph 1023.9mb 50f 47f
4:00am 4ft 8s 7 9 mph 1023.7mb 50f 47f
3:00am 3.5ft 8s 7 9 mph 1023.8mb 50f 47f
2:00am 4ft 8s 9 11 mph 1023.9mb 50f 47f
1:00am 4.5ft 8s 9 13 mph 1024.2mb 50f 48f
12:00am 4.5ft 9s 2 4 mph 1024.3mb 50f 48f
Sat 02/28 11:00pm 4ft 8s  -  2 mph 1024.2mb 50f 48f
10:00pm 4ft 8s 4
mph
1024.1mb 50f 49f
9:00pm 3.5ft 8s 7 9 mph 1023.7mb 50f 49f
8:00pm 4ft 9s 7 9 mph 1023.7mb 51f 49f
7:00pm 4ft 8s 7 9 mph 1023.7mb 51f 49f
6:00pm 4.5ft 9s 7 9 mph 1023.7mb 51f 49f
5:00pm 4.5ft 9s 4 7 mph 1024mb 52f 50f
4:00pm 4.5ft 8s 4 7 mph 1024.3mb 52f 50f
2:00pm 4.5ft 8s 9
mph
1024.4mb 51f 50f
1:00pm 5ft 9s 9 11 mph 1024.5mb 51f 50f
12:00pm 4.5ft 8s 7 9 mph 1024.5mb 51f 50f
11:00am 5ft 9s 4 7 mph 1024.4mb 51f 50f
10:00am 5ft 10s 4
mph
1023.8mb 50f 50f
9:00am 5.5ft 9s 7 9 mph 1023.5mb 50f 49f
8:00am 5ft 10s 4
mph
1023.1mb 50f 50f
7:00am 5ft 9s 9
mph
1021.9mb 50f 49f
6:00am 5ft 10s 7 9 mph 1021.7mb 50f 49f
5:00am 5ft 8s 7 9 mph 1021.3mb 50f 49f
4:00am 5.5ft 9s 7 9 mph 1020.9mb 50f 50f
3:00am 6ft 9s 7 9 mph 1020.2mb 50f 50f
2:00am 6ft 9s 9 11 mph 1020.1mb 50f 51f
1:00am 6.5ft 9s 11 13 mph 1019.3mb 50f 51f
12:00am 6.5ft 10s 4 7 mph 1018.6mb 50f 51f
Fri 02/27 11:00pm 6.5ft 9s 4 7 mph 1017.7mb 51f 51f
10:00pm 6.5ft 9s 9 13 mph 1016.5mb 51f 52f
9:00pm 7ft 10s 13 18 mph 1015.3mb 51f 52f
8:00pm 7.5ft 10s 13 16 mph 1014.2mb 51f 52f
7:00pm 7ft 10s 11 13 mph 1013.5mb 51f 53f
6:00pm 6.5ft 10s 4 7 mph 1012.7mb 51f 51f
5:00pm 7ft 10s 2 4 mph 1011.8mb 51f 50f
4:00pm 7ft 8s 2
mph
1011.4mb 51f 52f
3:00pm 6ft 9s 4 7 mph 1011mb 51f 51f
2:00pm 6.5ft 8s 7 9 mph 1010.4mb 51f 50f
1:00pm 6.5ft 9s 7 9 mph 1010.1mb 50f 50f
12:00pm 6ft 8s 2 4 mph 1010.3mb 50f 49f